createdAt,value
2022-08-02T00:06:50.621Z,100125.10
2022-08-02T00:09:23.917Z,100124.23
2022-08-02T00:12:53.417Z,100125.16
2022-08-02T00:16:03.777Z,100123.61
2022-08-02T00:18:37.772Z,100121.31
2022-08-02T00:21:31.624Z,100120.21
2022-08-02T00:24:27.903Z,100119.98
2022-08-02T00:27:52.727Z,100128.57
2022-08-02T00:30:31.536Z,100122.96
2022-08-02T00:32:59.388Z,100127.16
2022-08-02T00:35:34.346Z,100129.96
2022-08-02T00:38:12.210Z,100132.91
2022-08-02T00:41:11.672Z,100136.59
2022-08-02T00:43:44.106Z,100137.84
2022-08-02T00:46:21.085Z,100137.70
2022-08-02T00:48:54.110Z,100141.58
2022-08-02T01:17:37.714Z,100151.91
2022-08-02T01:21:00.887Z,100149.86
2022-08-02T01:24:13.336Z,100151.17
2022-08-02T01:27:24.008Z,100159.56
2022-08-02T01:29:56.625Z,100162.52
2022-08-02T01:32:47.953Z,100169.00
2022-08-02T01:35:58.789Z,100173.33
2022-08-02T01:38:51.815Z,100172.45
2022-08-02T01:42:20.387Z,100177.82
2022-08-02T01:45:02.771Z,100180.67
2022-08-02T01:47:56.398Z,100181.10
2022-08-02T05:30:47.917Z,100321.29
2022-08-02T05:33:37.660Z,100316.88
2022-08-02T05:36:06.450Z,100327.79
2022-08-02T05:38:36.831Z,100332.00
2022-08-02T05:41:09.907Z,100331.91
2022-08-02T05:43:38.934Z,100337.10
2022-08-02T05:46:09.099Z,100340.02
2022-08-02T05:49:01.239Z,100340.39
2022-08-02T05:51:47.559Z,100342.81
2022-08-02T05:54:39.362Z,100342.55
2022-08-02T05:57:30.176Z,100348.71
2022-08-02T06:00:21.568Z,100349.84
2022-08-02T06:03:41.475Z,100354.77
2022-08-02T06:06:16.621Z,100356.46
2022-08-02T06:08:51.076Z,100354.77
2022-08-02T06:11:22.303Z,100356.80
2022-08-02T06:14:06.850Z,100359.45
2022-08-02T06:16:37.598Z,100363.83
2022-08-02T06:19:18.009Z,100362.55
2022-08-02T06:22:35.466Z,100366.35
2022-08-02T06:24:51.450Z,100369.30
2022-08-02T06:27:23.090Z,100371.14
2022-08-02T06:29:53.529Z,100376.27
2022-08-02T06:32:24.273Z,100378.92
2022-08-02T06:34:52.547Z,100385.75
2022-08-02T06:37:30.860Z,100386.14
2022-08-02T06:40:12.768Z,100392.42
2022-08-02T06:43:04.410Z,100392.45
2022-08-02T06:45:33.629Z,100389.48
2022-08-02T06:48:02.709Z,100393.61
2022-08-02T06:50:31.340Z,100390.69
2022-08-02T06:53:00.250Z,100387.63
2022-08-02T06:55:29.242Z,100388.37
2022-08-02T06:58:22.344Z,100392.04
2022-08-02T07:01:18.503Z,100391.05
2022-08-02T07:03:46.390Z,100392.41
2022-08-02T07:06:14.297Z,100391.04
2022-08-02T07:08:50.921Z,100392.40
2022-08-02T07:11:30.189Z,100395.85
2022-08-02T07:13:59.807Z,100397.77
2022-08-02T07:16:30.393Z,100400.73
2022-08-02T07:18:59.916Z,100403.20
2022-08-02T07:21:57.614Z,100402.70
2022-08-02T07:25:01.313Z,100408.52
2022-08-02T07:27:29.936Z,100408.34
2022-08-02T07:29:59.558Z,100407.35
2022-08-02T07:32:31.647Z,100417.27
2022-08-02T07:35:02.678Z,100415.95
2022-08-02T07:37:55.223Z,100415.66
2022-08-02T07:40:49.355Z,100414.72
2022-08-02T07:43:17.842Z,100416.06
2022-08-02T07:45:55.605Z,100415.46
2022-08-02T07:48:36.190Z,100412.75
2022-08-02T07:51:16.909Z,100411.90
2022-08-02T07:53:50.625Z,100412.58
2022-08-02T07:56:25.605Z,100417.04
2022-08-02T07:58:55.739Z,100414.56
2022-08-02T08:01:23.616Z,100418.04
2022-08-02T08:03:51.472Z,100417.66
2022-08-02T08:06:19.620Z,100413.21
2022-08-02T08:08:57.165Z,100415.57
2022-08-02T08:11:27.029Z,100412.91
2022-08-02T08:13:55.285Z,100412.46
2022-08-02T08:16:23.154Z,100418.55
2022-08-02T08:18:51.171Z,100412.27
2022-08-02T08:21:19.131Z,100416.81
2022-08-02T08:23:47.783Z,100415.50
2022-08-02T08:26:17.801Z,100416.16
2022-08-02T08:28:45.737Z,100418.79
2022-08-02T08:31:14.231Z,100412.91
2022-08-02T08:33:42.129Z,100410.16
2022-08-02T08:36:11.772Z,100418.98
2022-08-02T08:38:39.304Z,100414.05
2022-08-02T08:41:08.245Z,100418.93
2022-08-02T08:43:37.009Z,100419.85
2022-08-02T08:46:05.403Z,100417.52
2022-08-02T08:48:38.213Z,100413.42
2022-08-02T08:51:16.061Z,100409.15
2022-08-02T08:53:47.975Z,100412.36
2022-08-02T08:56:17.906Z,100412.24
2022-08-02T08:58:49.434Z,100405.34
2022-08-02T09:01:17.188Z,100412.08
2022-08-02T09:03:45.190Z,100412.61
2022-08-02T09:06:12.825Z,100412.09
2022-08-02T09:08:40.917Z,100413.08
2022-08-02T09:11:16.727Z,100417.45
2022-08-02T09:13:54.042Z,100419.79
2022-08-02T09:16:38.633Z,100420.48
2022-08-02T09:19:18.621Z,100417.90
2022-08-02T09:21:51.654Z,100416.96
2022-08-02T09:24:24.798Z,100415.67
2022-08-02T09:26:54.308Z,100413.06
2022-08-02T09:29:25.171Z,100409.61
2022-08-02T09:32:02.953Z,100406.16
2022-08-02T09:34:52.844Z,100402.35
2022-08-02T09:37:29.000Z,100403.83
2022-08-02T09:40:04.831Z,100396.23
2022-08-02T09:42:37.396Z,100397.39
2022-08-02T09:45:06.379Z,100398.81
2022-08-02T09:47:37.670Z,100400.11
2022-08-02T09:50:05.631Z,100402.00
2022-08-02T09:52:37.386Z,100399.10
2022-08-02T09:55:15.543Z,100397.67
2022-08-02T09:57:44.052Z,100396.19
2022-08-02T10:00:37.064Z,100398.38
2022-08-02T10:03:18.387Z,100392.13
2022-08-02T10:05:56.337Z,100395.79
2022-08-02T10:08:33.826Z,100390.82
2022-08-02T10:17:49.865Z,100380.41
2022-08-02T10:21:26.305Z,100391.23
2022-08-02T10:24:33.976Z,100388.98
2022-08-02T10:31:14.519Z,100389.81
2022-08-02T10:34:31.779Z,100388.69
2022-08-02T11:00:40.985Z,100386.88
2022-08-02T14:05:47.313Z,100337.90
2022-08-02T15:06:59.753Z,100317.33
2022-08-02T15:13:42.473Z,100318.78
2022-08-02T15:16:12.544Z,100314.85
2022-08-02T15:18:45.156Z,100311.91
2022-08-02T15:21:36.518Z,100314.46
2022-08-02T15:24:02.814Z,100316.65
2022-08-02T15:26:33.837Z,100315.73
2022-08-02T15:29:03.689Z,100311.91
2022-08-02T15:31:33.372Z,100318.40
2022-08-02T15:34:02.504Z,100321.54
2022-08-02T15:36:32.251Z,100312.23
2022-08-02T15:39:00.148Z,100314.90
2022-08-02T15:41:29.533Z,100315.28
2022-08-02T15:44:23.249Z,100315.77
2022-08-02T15:46:54.522Z,100310.80
2022-08-02T15:49:23.439Z,100309.73
2022-08-02T15:52:22.906Z,100312.91
2022-08-02T15:56:32.464Z,100312.83
2022-08-02T16:03:15.516Z,100317.75
2022-08-02T16:10:01.828Z,100309.23
2022-08-02T16:12:32.582Z,100318.86
2022-08-02T16:15:17.740Z,100326.56
2022-08-02T16:17:54.101Z,100324.05
2022-08-02T16:21:02.597Z,100325.12
2022-08-02T16:23:59.172Z,100320.48
2022-08-02T16:26:57.401Z,100317.05
2022-08-02T16:29:25.230Z,100320.23
2022-08-02T16:31:56.648Z,100319.19
2022-08-02T16:34:24.927Z,100321.77
2022-08-02T16:36:54.522Z,100320.52
2022-08-02T16:39:28.204Z,100323.73
2022-08-02T16:42:25.467Z,100316.78
2022-08-02T16:44:54.904Z,100318.36
2022-08-02T16:47:43.435Z,100321.86
2022-08-02T16:50:27.109Z,100320.81
2022-08-02T16:52:58.553Z,100324.36
2022-08-02T16:55:30.530Z,100323.46
2022-08-02T16:58:01.133Z,100333.73
2022-08-02T17:00:37.450Z,100331.59
2022-08-02T17:03:13.069Z,100329.31
2022-08-02T17:05:56.158Z,100325.33
2022-08-02T17:08:32.112Z,100331.73
2022-08-02T17:11:04.528Z,100328.20
2022-08-02T17:13:34.328Z,100333.96
2022-08-02T17:16:26.066Z,100332.81
2022-08-02T17:18:55.547Z,100332.98
2022-08-02T17:21:31.629Z,100340.63
2022-08-02T17:24:05.134Z,100341.38
2022-08-02T17:26:37.755Z,100344.02
2022-08-02T17:29:15.321Z,100347.16
2022-08-02T17:32:04.873Z,100343.88
2022-08-02T17:34:36.983Z,100347.13
2022-08-02T17:37:07.167Z,100347.84
2022-08-02T17:39:44.391Z,100342.58
2022-08-02T17:42:23.359Z,100343.67
2022-08-02T17:44:54.230Z,100340.08
2022-08-02T17:47:23.087Z,100339.33
2022-08-02T17:49:59.376Z,100342.20
2022-08-02T17:52:50.422Z,100347.48
2022-08-02T17:55:16.557Z,100348.52
2022-08-02T17:57:57.167Z,100355.39
2022-08-02T18:00:34.097Z,100355.25
2022-08-02T18:03:06.017Z,100357.17
2022-08-02T18:05:40.318Z,100359.77
2022-08-02T18:08:24.057Z,100368.55
2022-08-02T18:10:54.048Z,100368.59
2022-08-02T18:13:22.246Z,100365.62
2022-08-02T18:15:57.270Z,100369.42
2022-08-02T18:18:29.871Z,100371.30
2022-08-02T18:21:15.477Z,100366.81
2022-08-02T18:23:49.357Z,100363.53
2022-08-02T18:26:20.685Z,100365.86
2022-08-02T18:28:49.465Z,100367.95
2022-08-02T18:31:22.748Z,100373.88
2022-08-02T18:33:59.674Z,100375.36
2022-08-02T18:36:31.607Z,100379.86
2022-08-02T18:39:08.721Z,100383.55
2022-08-02T18:41:38.105Z,100392.05
2022-08-02T18:44:15.855Z,100395.09
2022-08-02T18:46:51.131Z,100399.36
2022-08-02T18:49:46.088Z,100398.35
2022-08-02T18:52:30.682Z,100395.19
2022-08-02T18:56:00.059Z,100401.92
2022-08-02T20:12:35.267Z,100408.96
2022-08-02T20:15:56.288Z,100413.48
2022-08-02T20:19:29.916Z,100410.52
2022-08-02T20:29:48.862Z,100414.83
2022-08-02T20:32:25.767Z,100415.77
2022-08-02T20:34:57.395Z,100417.10
2022-08-02T20:37:59.845Z,100414.44
2022-08-02T20:40:50.739Z,100415.08
2022-08-02T20:43:42.725Z,100414.23
2022-08-02T20:46:52.693Z,100411.05
2022-08-02T20:49:40.822Z,100406.56
2022-08-02T20:52:24.200Z,100406.70
2022-08-02T20:55:39.482Z,100405.86
2022-08-02T21:07:03.226Z,100401.79
2022-08-02T21:13:46.993Z,100401.15
2022-08-02T21:19:52.785Z,100403.52
2022-08-02T21:22:27.446Z,100408.00
2022-08-02T21:24:58.815Z,100408.90
2022-08-02T21:27:52.010Z,100408.27
2022-08-02T21:30:20.125Z,100410.57
2022-08-02T21:32:57.916Z,100405.35
2022-08-02T21:35:29.900Z,100405.42
2022-08-02T21:37:58.436Z,100408.79
2022-08-02T21:40:27.079Z,100413.23
2022-08-02T21:42:57.745Z,100416.73
2022-08-02T21:45:31.408Z,100415.96
2022-08-02T21:48:00.142Z,100417.98
2022-08-02T21:50:35.100Z,100426.55
2022-08-02T21:53:06.686Z,100430.10
2022-08-02T21:56:00.595Z,100435.45
2022-08-02T21:58:32.583Z,100439.60
2022-08-02T22:01:02.509Z,100444.46
2022-08-02T22:03:34.391Z,100444.66
2022-08-02T22:06:08.254Z,100442.86
2022-08-02T22:08:45.449Z,100442.55
2022-08-02T22:11:17.532Z,100448.09
2022-08-02T22:13:47.623Z,100442.25
2022-08-02T22:16:18.355Z,100448.67
2022-08-02T22:18:52.538Z,100447.13
2022-08-02T22:21:24.541Z,100448.46
2022-08-02T22:23:56.883Z,100450.74
2022-08-02T22:26:33.385Z,100450.80
2022-08-02T22:29:05.746Z,100453.51
2022-08-02T22:31:44.041Z,100454.46
2022-08-02T22:34:37.328Z,100457.39
2022-08-02T22:38:14.979Z,100455.64
2022-08-02T22:40:08.713Z,100459.03
2022-08-02T22:43:00.187Z,100463.83
2022-08-02T22:45:29.120Z,100464.13
2022-08-02T22:48:10.063Z,100461.85
2022-08-02T22:50:50.095Z,100467.42
2022-08-02T22:53:35.283Z,100469.02
2022-08-02T22:56:05.607Z,100473.33
2022-08-02T23:01:29.050Z,100471.86
2022-08-02T23:03:59.896Z,100474.99
2022-08-02T23:06:32.706Z,100470.85
2022-08-02T23:09:07.419Z,100473.06
2022-08-02T23:11:35.192Z,100473.00
2022-08-02T23:14:08.565Z,100471.24
2022-08-02T23:16:54.769Z,100468.69
2022-08-02T23:19:44.940Z,100465.83
2022-08-02T23:22:20.635Z,100462.64
2022-08-02T23:24:54.517Z,100462.44
2022-08-02T23:27:25.917Z,100457.49
2022-08-02T23:30:02.350Z,100454.30
2022-08-02T23:32:33.985Z,100452.52
2022-08-02T23:35:09.519Z,100453.36
2022-08-02T23:37:59.632Z,100453.15
2022-08-02T23:40:42.369Z,100450.55
2022-08-02T23:43:18.545Z,100451.84
2022-08-02T23:45:51.285Z,100447.54
2022-08-02T23:48:22.962Z,100449.19
2022-08-02T23:50:52.827Z,100452.34
2022-08-02T23:53:21.877Z,100450.00
2022-08-02T23:55:54.463Z,100450.00
2022-08-02T23:58:23.184Z,100450.85
